Terminal Aerodrome Forecast
Issued by NWS

Current Version | Previous Version | Graphics & Text | Print | Product List | Glossary On
Versions: 1 2 3 4 5 6 7 8 9 10 11 12 13 14 15 16 17 18 19 20 21 22 23 24
000
FTUS41 KRLX 070500
TAFCKB
TAF
KCKB 070530Z 0706/0806 00000KT P6SM SCT070
     FM071300 21007KT P6SM SCT080
     FM071500 22012G18KT P6SM SCT110
     FM072300 23011G17KT 6SM BR VCTS BKN080CB
     FM080000 22010KT 6SM SHRA BR VCTS BKN060CB=

USA.gov is the U.S. government's official web portal to all federal, state and local government web resources and services.